Time;durP1;ratioP1;P1;durP2;ratioP2;P2;SDS_P1;SDS_P2;PMS_P1;PMS_P2;Temp;Humidity;BMP_temperature;BMP_pressure;BME280_temperature;BME280_humidity;BME280_pressure;Samples;Min_cycle;Max_cycle;Signal;HPM_P1;HPM_P2
2021/12/20 00:00:14;;;;;;;2.13;0.93;;;2.50;99.90;;;;;;4880416;29;20131;-67
2021/12/20 00:02:46;;;;;;;4.90;1.02;;;2.20;99.90;;;;;;4878573;29;20144;-67
2021/12/20 00:05:14;;;;;;;3.85;1.55;;;1.80;99.90;;;;;;4880618;29;20053;-69
2021/12/20 00:07:42;;;;;;;3.08;0.82;;;1.60;99.90;;;;;;4882118;29;20077;-70
2021/12/20 00:10:09;;;;;;;2.08;0.90;;;1.60;99.90;;;;;;4879893;29;20399;-64
2021/12/20 00:12:36;;;;;;;6.18;1.48;;;1.50;99.90;;;;;;4881249;29;20040;-70
2021/12/20 00:15:04;;;;;;;4.93;1.85;;;1.40;99.90;;;;;;4882188;29;20056;-67
2021/12/20 00:17:31;;;;;;;4.20;1.08;;;1.40;99.90;;;;;;4883487;29;20052;-66
2021/12/20 00:19:58;;;;;;;4.13;0.85;;;1.50;99.90;;;;;;4879674;29;20063;-66
2021/12/20 00:22:26;;;;;;;5.65;1.10;;;1.60;99.90;;;;;;4877370;29;20187;-68
2021/12/20 00:24:53;;;;;;;2.78;1.27;;;1.70;99.90;;;;;;4880993;29;20045;-64
2021/12/20 00:27:20;;;;;;;3.38;1.10;;;1.70;99.90;;;;;;4879903;29;20079;-68
2021/12/20 00:29:47;;;;;;;3.60;1.10;;;1.80;99.90;;;;;;4879439;29;20909;-68
2021/12/20 00:32:15;;;;;;;5.13;2.15;;;1.90;99.90;;;;;;4879809;29;20049;-67
2021/12/20 00:34:42;;;;;;;3.42;0.88;;;1.90;99.90;;;;;;4877844;29;20064;-67
2021/12/20 00:42:44;;;;;;;4.40;1.02;;;1.80;99.90;;;;;;4878293;29;20135;-68
2021/12/20 00:45:12;;;;;;;2.80;0.73;;;1.90;99.90;;;;;;4879214;29;20123;-70
2021/12/20 00:47:40;;;;;;;10.73;1.58;;;1.90;99.90;;;;;;4879479;29;20804;-69
2021/12/20 00:50:10;;;;;;;5.43;1.63;;;1.90;99.90;;;;;;4880197;29;20433;-67
2021/12/20 00:52:37;;;;;;;1.58;0.95;;;2.00;99.90;;;;;;4877369;29;20064;-70
2021/12/20 00:55:05;;;;;;;4.72;0.95;;;2.00;99.90;;;;;;4879058;29;20096;-69
2021/12/20 00:57:32;;;;;;;1.60;0.75;;;2.00;99.90;;;;;;4879684;29;20048;-66
2021/12/20 00:59:59;;;;;;;3.00;0.82;;;1.70;99.90;;;;;;4878006;29;20106;-65
2021/12/20 01:02:26;;;;;;;4.72;1.30;;;1.50;99.90;;;;;;4877597;29;20057;-64
2021/12/20 01:04:54;;;;;;;2.90;0.88;;;1.40;99.90;;;;;;4879579;29;20199;-69
2021/12/20 01:07:21;;;;;;;2.90;1.13;;;1.30;99.90;;;;;;4879505;29;21429;-70
2021/12/20 01:09:48;;;;;;;2.58;1.20;;;1.30;99.90;;;;;;4879146;29;20056;-67
2021/12/20 01:12:18;;;;;;;6.97;1.50;;;1.20;99.90;;;;;;4879263;29;20677;-68
2021/12/20 01:14:46;;;;;;;7.70;2.38;;;1.30;99.90;;;;;;4876467;29;20170;-67
2021/12/20 01:17:14;;;;;;;5.60;1.80;;;1.40;99.90;;;;;;4878557;29;20048;-67
2021/12/20 01:19:41;;;;;;;2.60;1.40;;;1.50;99.90;;;;;;4878895;29;20056;-65
2021/12/20 01:22:08;;;;;;;10.75;2.22;;;1.50;99.90;;;;;;4878837;29;20052;-64
2021/12/20 01:24:35;;;;;;;5.05;2.30;;;1.60;99.90;;;;;;4877593;29;20967;-66
2021/12/20 01:27:02;;;;;;;3.80;0.98;;;1.70;99.90;;;;;;4878523;29;20064;-66
2021/12/20 01:29:29;;;;;;;4.00;1.88;;;1.80;99.90;;;;;;4878913;29;21552;-63
2021/12/20 01:31:56;;;;;;;3.25;2.03;;;1.80;99.90;;;;;;4878507;29;20079;-66
2021/12/20 01:34:23;;;;;;;6.05;2.38;;;1.80;99.90;;;;;;4876877;29;20123;-68
2021/12/20 01:36:50;;;;;;;5.07;1.50;;;1.80;99.90;;;;;;4878550;29;20421;-70
2021/12/20 01:39:17;;;;;;;6.22;2.28;;;1.70;99.90;;;;;;4879151;29;20084;-69
2021/12/20 01:41:45;;;;;;;3.17;1.42;;;1.70;99.90;;;;;;4878782;29;20072;-63
2021/12/20 01:44:13;;;;;;;4.30;2.22;;;1.70;99.90;;;;;;4877950;29;20065;-67
2021/12/20 01:46:40;;;;;;;2.20;1.63;;;1.80;99.90;;;;;;4877466;29;20048;-66
2021/12/20 01:49:11;;;;;;;3.53;2.00;;;1.80;99.90;;;;;;4878237;29;20076;-65
2021/12/20 01:54:12;;;;;;;5.57;2.00;;;1.90;99.90;;;;;;4878216;29;20048;-65
2021/12/20 01:56:42;;;;;;;6.10;2.30;;;1.90;99.90;;;;;;4876575;29;20151;-68
2021/12/20 01:59:10;;;;;;;5.55;1.50;;;1.90;99.90;;;;;;4878059;29;20056;-66
2021/12/20 02:01:44;;;;;;;4.07;2.42;;;1.90;99.90;;;;;;4877828;29;20085;-64
2021/12/20 02:04:12;;;;;;;3.92;1.85;;;1.80;99.90;;;;;;4877787;29;20072;-68
2021/12/20 02:06:44;;;;;;;2.65;1.52;;;1.70;99.90;;;;;;4875649;29;20053;-67
2021/12/20 02:09:18;;;;;;;7.45;2.00;;;1.70;99.90;;;;;;4878485;29;20454;-66
2021/12/20 02:11:48;;;;;;;3.03;2.28;;;1.70;99.90;;;;;;4877421;29;20069;-67
2021/12/20 02:14:16;;;;;;;4.93;1.92;;;1.70;99.90;;;;;;4877392;29;20970;-69
2021/12/20 02:16:45;;;;;;;3.83;1.92;;;1.60;99.90;;;;;;4875695;29;20605;-64
2021/12/20 02:19:15;;;;;;;7.72;1.63;;;1.60;99.90;;;;;;4878005;29;20084;-65
2021/12/20 02:21:44;;;;;;;1.73;1.08;;;1.60;99.90;;;;;;4878382;29;20060;-69
2021/12/20 02:24:12;;;;;;;4.65;1.77;;;1.70;99.90;;;;;;4877184;29;20045;-67
2021/12/20 02:26:40;;;;;;;3.40;1.52;;;1.70;99.90;;;;;;4876735;29;20137;-64
2021/12/20 02:29:09;;;;;;;2.85;2.00;;;1.70;99.90;;;;;;4877116;29;20064;-68
2021/12/20 02:37:19;;;;;;;4.03;1.58;;;1.60;99.90;;;;;;4878157;29;20067;-64
2021/12/20 02:39:47;;;;;;;3.38;2.10;;;1.60;99.90;;;;;;4877461;29;20116;-67
2021/12/20 02:42:19;;;;;;;2.10;1.67;;;1.60;99.90;;;;;;4878137;29;20088;-66
2021/12/20 02:44:48;;;;;;;6.57;2.17;;;1.60;99.90;;;;;;4876103;29;20080;-66
2021/12/20 02:47:28;;;;;;;5.13;1.50;;;1.60;99.90;;;;;;4877312;29;20053;-67
2021/12/20 02:49:57;;;;;;;3.35;1.48;;;1.60;99.90;;;;;;4877873;29;20052;-66
2021/12/20 02:52:24;;;;;;;2.78;2.03;;;1.50;99.90;;;;;;4876094;29;20061;-66
2021/12/20 02:54:52;;;;;;;4.28;1.63;;;1.50;99.90;;;;;;4877232;29;20053;-66
2021/12/20 02:57:20;;;;;;;5.15;1.80;;;1.50;99.90;;;;;;4877932;29;20424;-70
2021/12/20 02:59:47;;;;;;;3.95;2.10;;;1.50;99.90;;;;;;4877024;29;20100;-66
2021/12/20 03:02:15;;;;;;;5.47;2.65;;;1.50;99.90;;;;;;4877316;29;20631;-65
2021/12/20 03:04:43;;;;;;;4.68;1.80;;;1.50;99.90;;;;;;4876324;29;20143;-66
2021/12/20 03:07:14;;;;;;;5.65;2.00;;;1.40;99.90;;;;;;4876453;29;20444;-65
2021/12/20 03:09:48;;;;;;;4.20;1.83;;;1.30;99.90;;;;;;4877906;29;20402;-64
2021/12/20 03:12:15;;;;;;;4.70;2.47;;;1.30;99.90;;;;;;4877222;29;20056;-69
2021/12/20 03:14:46;;;;;;;6.72;2.38;;;1.20;99.90;;;;;;4874583;29;20447;-68
2021/12/20 03:17:13;;;;;;;3.10;2.10;;;1.30;99.90;;;;;;4877206;29;20332;-65
2021/12/20 03:19:40;;;;;;;1.90;1.70;;;1.30;99.90;;;;;;4876611;29;20116;-67
2021/12/20 03:22:08;;;;;;;5.28;1.73;;;1.20;99.90;;;;;;4877525;29;20068;-65
2021/12/20 03:24:35;;;;;;;6.28;1.88;;;1.20;99.90;;;;;;4874999;29;20164;-66
2021/12/20 03:27:03;;;;;;;4.15;1.55;;;1.30;99.90;;;;;;4879650;29;20144;-72
2021/12/20 03:29:30;;;;;;;4.13;1.60;;;1.20;99.90;;;;;;4879873;29;20060;-65
2021/12/20 03:31:57;;;;;;;3.83;1.55;;;1.20;99.90;;;;;;4880821;29;20064;-63
2021/12/20 03:34:24;;;;;;;3.08;1.63;;;1.10;99.90;;;;;;4878142;29;20057;-70
2021/12/20 03:36:51;;;;;;;6.18;1.58;;;1.10;99.90;;;;;;4880639;29;20089;-65
2021/12/20 03:39:18;;;;;;;3.75;1.33;;;1.10;99.90;;;;;;4879304;29;20055;-70
2021/12/20 03:41:45;;;;;;;5.28;1.77;;;1.10;99.90;;;;;;4879834;29;20629;-70
2021/12/20 03:44:13;;;;;;;1.58;1.15;;;1.10;99.90;;;;;;4879158;29;20061;-68
2021/12/20 03:46:40;;;;;;;8.35;2.22;;;1.10;99.90;;;;;;4878116;29;20124;-64
2021/12/20 03:49:08;;;;;;;4.63;1.92;;;1.00;99.90;;;;;;4880412;29;20057;-67
2021/12/20 03:51:36;;;;;;;2.75;1.60;;;1.00;99.90;;;;;;4880574;29;20065;-67
2021/12/20 03:54:04;;;;;;;11.57;1.98;;;1.00;99.90;;;;;;4880466;29;20104;-69
2021/12/20 03:56:32;;;;;;;1.33;1.10;;;1.00;99.90;;;;;;4878247;29;20069;-67
2021/12/20 03:58:59;;;;;;;2.83;0.98;;;1.00;99.90;;;;;;4879655;29;20056;-67
2021/12/20 04:01:27;;;;;;;5.15;1.02;;;1.00;99.90;;;;;;4878792;29;20048;-69
2021/12/20 04:03:57;;;;;;;3.30;1.08;;;1.00;99.90;;;;;;4879038;29;20116;-67
2021/12/20 04:06:25;;;;;;;1.77;1.35;;;1.00;99.90;;;;;;4879162;29;20049;-65
2021/12/20 04:08:52;;;;;;;2.67;1.02;;;1.00;99.90;;;;;;4879988;29;20045;-67
2021/12/20 04:11:19;;;;;;;2.42;1.73;;;0.90;99.90;;;;;;4879639;29;20060;-65
2021/12/20 04:13:47;;;;;;;1.92;1.00;;;0.90;99.90;;;;;;4880156;29;21483;-67
2021/12/20 04:16:14;;;;;;;4.05;1.23;;;0.90;99.90;;;;;;4879419;29;20199;-65
2021/12/20 04:18:41;;;;;;;3.28;1.02;;;0.80;99.90;;;;;;4878648;29;20120;-65
2021/12/20 04:21:10;;;;;;;2.95;1.40;;;0.80;99.90;;;;;;4879653;29;20079;-67
2021/12/20 04:23:37;;;;;;;2.72;1.60;;;0.90;99.90;;;;;;4879997;29;20052;-67
2021/12/20 04:26:05;;;;;;;3.13;1.20;;;0.90;99.90;;;;;;4879308;29;20144;-66
2021/12/20 04:28:32;;;;;;;2.80;1.73;;;0.90;99.90;;;;;;4878524;29;20124;-66
2021/12/20 04:31:00;;;;;;;2.95;1.33;;;0.90;99.90;;;;;;4878707;29;20045;-67
2021/12/20 04:33:27;;;;;;;1.23;1.10;;;0.90;99.90;;;;;;4879160;29;20040;-64
2021/12/20 04:35:54;;;;;;;2.13;0.90;;;0.90;99.90;;;;;;4879588;29;20060;-67
2021/12/20 04:38:22;;;;;;;7.35;2.72;;;0.90;99.90;;;;;;4877612;29;20053;-65
2021/12/20 04:40:49;;;;;;;2.88;1.10;;;0.90;99.90;;;;;;4895351;29;20579;-69
2021/12/20 04:43:16;;;;;;;4.40;1.40;;;0.90;99.90;;;;;;4879748;29;20147;-67
2021/12/20 04:45:43;;;;;;;4.45;1.50;;;0.90;99.90;;;;;;4878299;29;20045;-67
2021/12/20 04:48:10;;;;;;;2.47;1.30;;;0.90;99.90;;;;;;4879285;29;20682;-70
2021/12/20 04:50:38;;;;;;;6.45;1.35;;;1.00;99.90;;;;;;4878097;29;20089;-66
2021/12/20 04:53:05;;;;;;;5.25;1.58;;;1.00;99.90;;;;;;4879845;29;20056;-66
2021/12/20 04:55:33;;;;;;;2.17;1.20;;;0.90;99.90;;;;;;4878886;29;20052;-64
2021/12/20 04:58:02;;;;;;;4.93;1.40;;;0.90;99.90;;;;;;4879065;29;20068;-64
2021/12/20 05:00:33;;;;;;;5.90;1.50;;;0.80;99.90;;;;;;4875314;29;20053;-71
2021/12/20 05:03:01;;;;;;;5.20;1.35;;;0.80;99.90;;;;;;4879214;29;20063;-64
2021/12/20 05:05:29;;;;;;;2.92;1.20;;;0.80;99.90;;;;;;4877903;29;20045;-68
2021/12/20 05:08:00;;;;;;;1.42;1.30;;;0.70;99.90;;;;;;4877880;29;20488;-67
2021/12/20 05:10:33;;;;;;;1.70;0.98;;;0.80;99.90;;;;;;4876228;29;20131;-67
2021/12/20 05:13:07;;;;;;;4.35;0.88;;;0.70;99.90;;;;;;4879085;29;20134;-68
2021/12/20 05:15:36;;;;;;;1.40;0.55;;;0.80;99.90;;;;;;4878150;29;20063;-67
2021/12/20 05:18:05;;;;;;;1.15;0.43;;;0.70;99.90;;;;;;4879270;29;20056;-63
2021/12/20 05:20:32;;;;;;;3.30;0.80;;;0.70;99.90;;;;;;4876065;29;20072;-71
2021/12/20 05:23:01;;;;;;;1.75;1.10;;;0.70;99.90;;;;;;4879199;29;20049;-68
2021/12/20 05:25:28;;;;;;;3.80;1.77;;;0.70;99.90;;;;;;4878220;29;20081;-65
2021/12/20 05:27:56;;;;;;;3.45;1.15;;;0.60;99.90;;;;;;4878768;29;20057;-69
2021/12/20 05:30:23;;;;;;;4.38;0.80;;;0.60;99.90;;;;;;4876674;29;20057;-70
2021/12/20 05:32:50;;;;;;;3.85;0.90;;;0.60;99.90;;;;;;4878197;29;20346;-69
2021/12/20 05:35:19;;;;;;;2.08;1.90;;;0.60;99.90;;;;;;4878219;29;20061;-71
2021/12/20 05:37:46;;;;;;;4.45;1.23;;;0.60;99.90;;;;;;4879582;29;20060;-65
2021/12/20 05:40:14;;;;;;;1.02;0.40;;;0.60;99.90;;;;;;4877982;29;20132;-69
2021/12/20 05:42:41;;;;;;;5.00;1.20;;;0.60;99.90;;;;;;4877503;29;20160;-64
2021/12/20 05:45:09;;;;;;;5.75;1.10;;;0.60;99.90;;;;;;4877457;29;20164;-69
2021/12/20 05:47:37;;;;;;;1.25;0.65;;;0.60;99.90;;;;;;4878933;29;20064;-64
2021/12/20 05:50:06;;;;;;;9.45;2.83;;;0.50;99.90;;;;;;4877050;29;21400;-65
2021/12/20 05:52:33;;;;;;;12.38;0.85;;;0.50;99.90;;;;;;4876739;29;20507;-70
2021/12/20 05:55:00;;;;;;;3.63;1.02;;;0.60;99.90;;;;;;4878648;29;20733;-65
2021/12/20 05:57:28;;;;;;;2.45;0.80;;;0.60;99.90;;;;;;4878511;29;20414;-69
2021/12/20 05:59:55;;;;;;;2.67;0.90;;;0.60;99.90;;;;;;4877632;29;20156;-65
2021/12/20 06:02:22;;;;;;;6.60;1.27;;;0.60;99.90;;;;;;4876606;29;20061;-67
2021/12/20 06:04:51;;;;;;;1.27;0.93;;;0.60;99.90;;;;;;4877586;29;20056;-69
2021/12/20 06:07:19;;;;;;;1.55;1.13;;;0.60;99.90;;;;;;4877230;29;20136;-71
2021/12/20 06:09:47;;;;;;;1.35;0.82;;;0.60;99.90;;;;;;4877669;29;20088;-66
2021/12/20 06:12:14;;;;;;;2.55;0.98;;;0.60;99.90;;;;;;4877930;29;20056;-64
2021/12/20 06:14:41;;;;;;;2.05;0.75;;;0.60;99.90;;;;;;4875218;29;20131;-64
2021/12/20 06:17:08;;;;;;;14.65;2.05;;;0.60;99.90;;;;;;4877914;29;20084;-66
2021/12/20 06:19:35;;;;;;;3.55;1.10;;;0.60;99.90;;;;;;4876974;29;20518;-67
2021/12/20 06:22:04;;;;;;;3.28;1.95;;;0.60;99.90;;;;;;4876659;29;20048;-69
2021/12/20 06:24:31;;;;;;;1.85;0.73;;;0.60;99.90;;;;;;4874155;29;20136;-65
2021/12/20 06:26:59;;;;;;;3.70;1.02;;;0.60;99.90;;;;;;4877469;29;20052;-65
2021/12/20 06:29:26;;;;;;;6.43;1.65;;;0.60;99.90;;;;;;4878243;29;20155;-67
2021/12/20 06:31:53;;;;;;;1.63;0.95;;;0.70;99.90;;;;;;4877423;29;20084;-64
2021/12/20 06:34:20;;;;;;;5.60;1.08;;;0.60;99.90;;;;;;4876474;29;20432;-68
2021/12/20 06:36:47;;;;;;;2.42;1.15;;;0.70;99.90;;;;;;4877487;29;20170;-65
2021/12/20 06:39:14;;;;;;;3.08;0.77;;;0.70;99.90;;;;;;4877407;29;20397;-67
2021/12/20 06:41:41;;;;;;;5.22;1.27;;;0.70;99.90;;;;;;4876979;29;20049;-66
2021/12/20 06:44:09;;;;;;;9.73;1.13;;;0.70;99.90;;;;;;4877338;29;20119;-67
2021/12/20 06:46:40;;;;;;;7.53;1.17;;;0.70;99.90;;;;;;4875314;29;20060;-65
2021/12/20 06:49:09;;;;;;;1.70;1.05;;;0.70;99.90;;;;;;4876354;29;20091;-73
2021/12/20 06:51:42;;;;;;;4.50;1.00;;;0.70;99.90;;;;;;4876835;29;20044;-67
2021/12/20 06:54:11;;;;;;;5.05;1.58;;;0.80;99.90;;;;;;4876479;29;20060;-68
2021/12/20 06:56:42;;;;;;;4.88;0.60;;;0.70;99.90;;;;;;4874918;29;20071;-67
2021/12/20 06:59:09;;;;;;;1.42;0.32;;;0.70;99.90;;;;;;4875195;29;20160;-67
2021/12/20 07:01:37;;;;;;;7.88;1.30;;;0.70;99.90;;;;;;4876564;29;20064;-68
2021/12/20 07:04:04;;;;;;;4.20;1.08;;;0.70;99.90;;;;;;4877287;29;20072;-65
2021/12/20 07:06:32;;;;;;;3.03;0.70;;;0.70;99.90;;;;;;4875079;29;20045;-67
2021/12/20 07:09:00;;;;;;;3.72;0.75;;;0.70;99.90;;;;;;4877604;29;20053;-67
2021/12/20 07:11:27;;;;;;;3.45;0.50;;;0.70;99.90;;;;;;4875536;29;20057;-64
2021/12/20 07:13:54;;;;;;;4.32;1.10;;;0.80;99.90;;;;;;4876731;29;20119;-69
2021/12/20 07:16:22;;;;;;;4.18;0.68;;;0.90;99.90;;;;;;4875014;29;20224;-65
2021/12/20 07:18:49;;;;;;;3.25;0.82;;;0.90;99.90;;;;;;4877307;29;20124;-66
2021/12/20 07:21:18;;;;;;;5.47;1.15;;;0.90;99.90;;;;;;4876342;29;20056;-68
2021/12/20 07:23:45;;;;;;;4.85;0.85;;;0.90;99.90;;;;;;4875898;29;20074;-72
2021/12/20 07:26:13;;;;;;;3.95;1.25;;;0.90;99.90;;;;;;4877093;29;20056;-66
2021/12/20 07:28:42;;;;;;;7.30;0.95;;;0.90;99.90;;;;;;4875193;29;20067;-68
2021/12/20 07:31:11;;;;;;;19.63;1.95;;;0.90;99.90;;;;;;4874348;29;20511;-72
2021/12/20 07:33:39;;;;;;;4.15;0.75;;;0.90;99.90;;;;;;4870134;29;20063;-70
2021/12/20 07:36:07;;;;;;;8.88;1.02;;;0.90;99.90;;;;;;4878020;29;20068;-67
2021/12/20 07:38:36;;;;;;;2.60;0.75;;;1.00;99.90;;;;;;4875144;29;20148;-68
2021/12/20 07:41:04;;;;;;;10.57;1.60;;;1.00;99.90;;;;;;4876280;29;20037;-65
2021/12/20 07:43:31;;;;;;;3.60;0.80;;;1.00;99.90;;;;;;4875485;29;20068;-70
2021/12/20 07:45:58;;;;;;;4.88;0.82;;;1.00;99.90;;;;;;4871829;29;20053;-69
2021/12/20 07:48:25;;;;;;;6.82;1.23;;;1.00;99.90;;;;;;4872049;29;20052;-65
2021/12/20 07:50:53;;;;;;;6.18;1.10;;;1.00;99.90;;;;;;4874563;29;20053;-71
2021/12/20 07:53:20;;;;;;;8.43;0.93;;;1.00;99.90;;;;;;4876131;29;20460;-68
2021/12/20 07:55:47;;;;;;;4.72;1.23;;;1.10;99.90;;;;;;4876143;29;20646;-65
2021/12/20 07:58:14;;;;;;;4.30;1.27;;;1.10;99.90;;;;;;4876205;29;20080;-69
2021/12/20 08:00:41;;;;;;;3.70;1.70;;;1.10;99.90;;;;;;4872743;29;20052;-64
2021/12/20 08:03:09;;;;;;;4.38;1.25;;;1.00;99.90;;;;;;4876262;29;20064;-64
2021/12/20 08:05:37;;;;;;;8.50;1.10;;;1.00;99.90;;;;;;4874904;29;20059;-68
2021/12/20 08:08:05;;;;;;;3.25;0.95;;;0.90;99.90;;;;;;4875998;29;20053;-66
2021/12/20 08:10:32;;;;;;;4.75;0.88;;;0.90;99.90;;;;;;4872748;29;20056;-64
2021/12/20 08:12:59;;;;;;;5.25;2.15;;;0.80;99.90;;;;;;4877839;29;20068;-64
2021/12/20 08:15:27;;;;;;;1.85;1.02;;;0.80;99.90;;;;;;4877930;29;21379;-68
2021/12/20 08:17:56;;;;;;;2.33;1.30;;;0.70;99.90;;;;;;4878492;29;20060;-64
2021/12/20 08:20:24;;;;;;;3.35;1.27;;;0.70;99.90;;;;;;4877665;29;20053;-64
2021/12/20 08:22:51;;;;;;;2.25;1.63;;;0.70;99.90;;;;;;4879297;29;20079;-64
2021/12/20 08:25:19;;;;;;;3.47;0.80;;;0.70;99.90;;;;;;4879460;29;20132;-68
2021/12/20 08:27:47;;;;;;;2.63;0.90;;;0.60;99.90;;;;;;4878753;29;20061;-66
2021/12/20 08:30:14;;;;;;;1.88;0.95;;;0.50;99.90;;;;;;4879214;29;20143;-68
2021/12/20 08:32:41;;;;;;;2.00;1.20;;;0.40;99.90;;;;;;4876669;29;20124;-64
2021/12/20 08:35:11;;;;;;;2.63;1.27;;;0.40;99.90;;;;;;4878684;29;20057;-66
2021/12/20 08:37:38;;;;;;;4.70;1.33;;;0.40;99.90;;;;;;4879331;29;20139;-68
2021/12/20 08:40:10;;;;;;;3.10;0.75;;;0.30;99.90;;;;;;4878990;29;20059;-68
2021/12/20 08:42:39;;;;;;;1.75;1.13;;;0.40;99.90;;;;;;4877049;29;20233;-66
2021/12/20 08:45:07;;;;;;;1.10;0.70;;;0.30;99.90;;;;;;4878172;29;20144;-70
2021/12/20 08:47:34;;;;;;;8.00;1.88;;;0.30;99.90;;;;;;4878429;29;20116;-67
2021/12/20 08:50:04;;;;;;;3.63;1.13;;;0.00;99.90;;;;;;4879137;29;20049;-67
2021/12/20 08:52:31;;;;;;;4.10;1.55;;;-0.20;99.90;;;;;;4876735;29;20432;-68
2021/12/20 08:54:58;;;;;;;6.65;1.20;;;-0.20;99.90;;;;;;4875387;29;20060;-71
2021/12/20 08:57:25;;;;;;;6.60;1.42;;;-0.30;99.90;;;;;;4876910;29;20064;-69
2021/12/20 08:59:52;;;;;;;2.15;1.27;;;-0.30;99.90;;;;;;4878334;29;20422;-64
2021/12/20 09:02:19;;;;;;;1.77;1.20;;;-0.40;99.90;;;;;;4876841;29;20053;-65
2021/12/20 09:04:46;;;;;;;3.75;2.05;;;-0.30;99.90;;;;;;4878045;29;20052;-67
2021/12/20 09:07:16;;;;;;;3.38;1.20;;;-0.30;99.90;;;;;;4878345;29;20067;-68
2021/12/20 09:09:46;;;;;;;2.22;1.20;;;-0.20;99.90;;;;;;4878292;29;21461;-67
2021/12/20 09:12:16;;;;;;;2.55;0.93;;;-0.20;99.90;;;;;;4878149;29;20065;-65
2021/12/20 09:14:43;;;;;;;3.75;1.35;;;-0.10;99.90;;;;;;4876884;29;20048;-65
2021/12/20 09:17:10;;;;;;;6.10;1.02;;;0.00;99.90;;;;;;4876754;29;20699;-70
2021/12/20 09:19:38;;;;;;;2.58;0.82;;;0.00;99.90;;;;;;4880197;29;20056;-66
2021/12/20 09:22:11;;;;;;;2.95;0.93;;;-0.10;99.90;;;;;;4877421;29;20841;-68
2021/12/20 09:24:39;;;;;;;1.70;1.10;;;0.00;99.90;;;;;;4877165;29;20060;-67
2021/12/20 09:27:08;;;;;;;7.80;1.95;;;0.10;99.90;;;;;;4881109;29;20048;-70
2021/12/20 09:29:35;;;;;;;4.47;2.83;;;0.10;99.90;;;;;;4876668;29;20060;-65
2021/12/20 09:32:04;;;;;;;2.42;1.20;;;0.10;99.90;;;;;;4877728;29;20037;-68
2021/12/20 09:34:31;;;;;;;1.95;1.10;;;0.00;99.90;;;;;;4876391;29;20071;-68
2021/12/20 09:37:04;;;;;;;2.13;1.02;;;0.00;99.90;;;;;;4879377;29;20056;-68
2021/12/20 09:39:32;;;;;;;1.80;0.65;;;0.00;99.90;;;;;;4876453;29;20060;-68
2021/12/20 09:41:59;;;;;;;1.70;1.15;;;0.10;99.90;;;;;;4877760;29;20627;-68
2021/12/20 09:44:27;;;;;;;4.82;0.85;;;0.20;99.90;;;;;;4875602;29;20072;-66
2021/12/20 09:46:59;;;;;;;2.47;1.02;;;0.10;99.90;;;;;;4877159;29;21392;-65
2021/12/20 09:49:27;;;;;;;7.88;0.88;;;0.20;99.90;;;;;;4874085;29;20109;-64
2021/12/20 09:51:57;;;;;;;4.97;1.58;;;0.30;99.90;;;;;;4873671;29;20059;-69
2021/12/20 09:54:25;;;;;;;14.63;1.83;;;0.30;99.90;;;;;;4873351;29;20068;-66
2021/12/20 09:56:54;;;;;;;6.25;1.00;;;0.40;99.90;;;;;;4875959;29;20137;-66
2021/12/20 09:59:24;;;;;;;3.08;1.02;;;0.40;99.90;;;;;;4876930;29;20058;-68
2021/12/20 10:01:52;;;;;;;2.72;0.63;;;0.40;99.90;;;;;;4878799;29;20097;-69
2021/12/20 10:04:21;;;;;;;1.90;0.70;;;0.30;99.90;;;;;;4876825;29;20064;-65
2021/12/20 10:06:58;;;;;;;4.35;1.00;;;0.30;99.90;;;;;;4878883;29;20432;-67
2021/12/20 10:09:28;;;;;;;1.15;0.50;;;0.30;99.90;;;;;;4879614;29;20083;-69
2021/12/20 10:12:16;;;;;;;1.58;0.65;;;0.30;99.90;;;;;;4878131;29;20060;-67
2021/12/20 10:14:59;;;;;;;6.43;0.95;;;0.30;99.90;;;;;;4876813;29;20056;-71
2021/12/20 10:17:51;;;;;;;0.95;0.68;;;0.30;99.90;;;;;;4878468;29;20056;-67
2021/12/20 10:20:20;;;;;;;3.60;0.93;;;0.40;99.90;;;;;;4878292;29;20052;-68
2021/12/20 10:22:47;;;;;;;3.13;1.02;;;0.40;99.90;;;;;;4877780;29;20123;-69
2021/12/20 10:25:28;;;;;;;2.85;1.98;;;0.50;99.90;;;;;;4878774;29;20073;-69
2021/12/20 10:28:10;;;;;;;3.40;1.35;;;0.40;99.90;;;;;;4879227;29;20063;-69
2021/12/20 10:30:43;;;;;;;2.33;1.15;;;0.40;99.90;;;;;;4877274;29;20080;-69
2021/12/20 10:33:21;;;;;;;6.03;1.92;;;0.40;99.90;;;;;;4878732;29;20049;-69
2021/12/20 10:35:52;;;;;;;3.50;1.63;;;0.40;99.90;;;;;;4877619;29;20061;-67
2021/12/20 10:38:22;;;;;;;2.60;0.75;;;0.40;99.90;;;;;;4876907;29;20063;-66
2021/12/20 10:41:06;;;;;;;4.05;0.63;;;0.40;99.90;;;;;;4877576;29;20104;-69
2021/12/20 10:43:48;;;;;;;1.33;0.80;;;0.40;99.90;;;;;;4878846;29;20561;-65
2021/12/20 10:46:29;;;;;;;6.97;0.52;;;0.30;99.90;;;;;;4876291;29;20072;-64
2021/12/20 10:49:01;;;;;;;3.67;1.67;;;0.40;99.90;;;;;;4876731;29;20107;-68
2021/12/20 10:51:39;;;;;;;1.00;0.57;;;0.40;99.90;;;;;;4879469;29;20084;-64
2021/12/20 10:54:11;;;;;;;3.88;0.68;;;0.30;99.90;;;;;;4877607;29;20057;-72
2021/12/20 10:57:05;;;;;;;4.55;0.50;;;0.30;99.90;;;;;;4876866;29;20056;-68
2021/12/20 10:59:35;;;;;;;2.55;0.93;;;0.30;99.90;;;;;;4878008;29;20053;-66
2021/12/20 11:05:01;;;;;;;2.80;0.90;;;0.30;99.90;;;;;;4865215;29;20121;-67
2021/12/20 11:10:06;;;;;;;1.10;0.82;;;0.20;99.90;;;;;;4879314;29;20048;-69
2021/12/20 11:12:34;;;;;;;3.15;1.50;;;0.30;99.90;;;;;;4875882;29;20108;-69
2021/12/20 11:15:13;;;;;;;2.97;0.55;;;0.20;99.90;;;;;;4877450;29;20159;-68
2021/12/20 11:17:42;;;;;;;6.47;1.42;;;0.20;99.90;;;;;;4878541;29;20450;-67
2021/12/20 11:20:10;;;;;;;0.80;0.73;;;0.20;99.90;;;;;;4873260;29;20563;-66
2021/12/20 11:22:37;;;;;;;1.60;0.75;;;0.20;99.90;;;;;;4876199;29;20170;-67
2021/12/20 11:25:07;;;;;;;1.17;0.63;;;0.30;99.90;;;;;;4876071;29;20052;-70
2021/12/20 11:27:38;;;;;;;3.60;0.52;;;0.20;99.90;;;;;;4877746;29;20053;-67
2021/12/20 11:30:09;;;;;;;;;;;0.20;99.90;;;;;;4878553;29;20076;-64
2021/12/20 11:32:37;;;;;;;1.73;1.02;;;0.20;99.90;;;;;;4876384;29;19931;-68
2021/12/20 11:35:05;;;;;;;2.00;0.65;;;0.20;99.90;;;;;;4877742;29;20060;-66
2021/12/20 11:37:32;;;;;;;2.92;0.70;;;0.20;99.90;;;;;;4877809;29;20076;-64
2021/12/20 11:40:02;;;;;;;2.67;0.40;;;0.20;99.90;;;;;;4878178;29;20523;-67
2021/12/20 11:42:30;;;;;;;3.05;0.70;;;0.10;99.90;;;;;;4876752;29;20048;-65
2021/12/20 11:45:00;;;;;;;1.67;0.70;;;0.20;99.90;;;;;;4877297;29;20053;-65
2021/12/20 11:47:29;;;;;;;;;;;0.20;99.90;;;;;;4879192;29;20063;-68
2021/12/20 11:50:10;;;;;;;5.57;0.90;;;0.20;99.90;;;;;;4882376;29;20979;-70
2021/12/20 11:52:42;;;;;;;3.15;0.95;;;0.20;99.90;;;;;;4879201;29;20048;-71
2021/12/20 11:55:19;;;;;;;2.95;0.50;;;0.20;99.90;;;;;;4882351;29;20052;-65
2021/12/20 11:58:09;;;;;;;2.90;0.50;;;0.10;99.90;;;;;;4879720;29;20060;-68
2021/12/20 12:00:46;;;;;;;2.80;1.00;;;0.00;99.90;;;;;;4868590;29;20049;-70
2021/12/20 12:03:16;;;;;;;1.35;0.47;;;0.00;99.90;;;;;;4881208;29;20356;-69
2021/12/20 12:06:03;;;;;;;0.90;0.55;;;0.00;99.90;;;;;;4881410;29;20084;-66
2021/12/20 12:08:42;;;;;;;6.25;1.38;;;0.00;99.90;;;;;;4880543;29;20128;-67
2021/12/20 12:11:09;;;;;;;2.92;0.90;;;0.00;99.90;;;;;;4880278;29;20053;-65
2021/12/20 12:13:50;;;;;;;4.40;0.90;;;0.00;99.90;;;;;;4882389;29;20097;-66
2021/12/20 12:16:30;;;;;;;6.93;1.17;;;0.00;99.90;;;;;;4878123;29;20374;-63
2021/12/20 12:18:59;;;;;;;6.18;1.30;;;-0.10;99.90;;;;;;4879648;29;20167;-67
2021/12/20 12:21:41;;;;;;;1.23;0.70;;;0.00;99.90;;;;;;4880130;29;20175;-66
2021/12/20 12:24:47;;;;;;;2.58;0.88;;;0.00;99.90;;;;;;4882129;29;20082;-66
2021/12/20 12:27:33;;;;;;;4.00;1.85;;;-0.10;99.90;;;;;;4880351;29;20135;-65
2021/12/20 12:30:13;;;;;;;2.80;0.55;;;-0.10;99.90;;;;;;4880562;29;20815;-67
2021/12/20 12:32:49;;;;;;;2.03;0.98;;;-0.10;99.90;;;;;;4880088;29;20063;-70
2021/12/20 12:35:50;;;;;;;3.83;1.10;;;-0.10;99.90;;;;;;4880380;29;20109;-69
2021/12/20 12:38:33;;;;;;;3.70;1.15;;;-0.10;99.90;;;;;;4881896;29;20057;-65
2021/12/20 12:41:11;;;;;;;2.88;0.95;;;-0.10;99.90;;;;;;4876466;29;20044;-70
2021/12/20 12:43:47;;;;;;;4.20;1.33;;;-0.20;99.90;;;;;;4880807;29;20699;-68
2021/12/20 12:46:15;;;;;;;3.17;0.90;;;-0.20;99.90;;;;;;4877875;29;20048;-69
2021/12/20 12:48:50;;;;;;;5.43;1.15;;;-0.20;99.90;;;;;;4879395;29;20546;-68
2021/12/20 12:51:19;;;;;;;4.35;1.10;;;-0.20;99.90;;;;;;4880707;29;20215;-69
2021/12/20 12:53:55;;;;;;;2.95;1.20;;;-0.20;99.90;;;;;;4881132;29;20049;-67
2021/12/20 12:56:25;;;;;;;2.63;1.00;;;-0.20;99.90;;;;;;4879420;29;20156;-69
2021/12/20 12:59:11;;;;;;;1.48;0.70;;;-0.20;99.90;;;;;;4879518;29;20061;-69
2021/12/20 13:01:40;;;;;;;7.43;2.45;;;-0.30;99.90;;;;;;4880038;29;20192;-65
2021/12/20 13:04:07;;;;;;;2.35;1.20;;;-0.30;99.90;;;;;;4879861;29;20077;-72
2021/12/20 13:06:35;;;;;;;3.95;1.00;;;-0.30;99.90;;;;;;4878363;29;20080;-66
2021/12/20 13:09:03;;;;;;;1.60;1.23;;;-0.40;99.90;;;;;;4880960;29;20056;-64
2021/12/20 13:11:32;;;;;;;2.17;1.02;;;-0.30;99.90;;;;;;4879893;29;20081;-66
2021/12/20 13:14:18;;;;;;;3.65;0.90;;;-0.40;99.90;;;;;;4882072;29;20059;-66
2021/12/20 13:16:53;;;;;;;6.65;1.00;;;-0.50;99.90;;;;;;4879916;29;20057;-70
2021/12/20 13:19:32;;;;;;;3.65;0.88;;;-0.60;99.90;;;;;;4879096;29;20064;-68
2021/12/20 13:22:02;;;;;;;2.80;0.52;;;-0.60;99.90;;;;;;4879166;29;20056;-72
2021/12/20 13:24:29;;;;;;;3.00;0.77;;;-0.70;99.90;;;;;;4877545;29;20079;-65
2021/12/20 13:27:06;;;;;;;2.65;1.05;;;-0.70;99.90;;;;;;4878344;29;20140;-70